Time;durP1;ratioP1;P1;durP2;ratioP2;P2;SDS_P1;SDS_P2;PMS_P1;PMS_P2;Temp;Humidity;BMP_temperature;BMP_pressure;BME280_temperature;BME280_humidity;BME280_pressure;Samples;Min_cycle;Max_cycle;Signal;HPM_P1;HPM_P2
2023/03/24 00:01:08;;;;;;;;;;;;;;;25.43;42.73;97061.47;594635;238;68852;-63
2023/03/24 00:03:36;;;;;;;;;;;;;;;25.43;42.49;97064.16;594379;238;68336;-63
2023/03/24 00:06:06;;;;;;;;;;;;;;;25.42;42.65;97059.86;594834;238;62770;-63
2023/03/24 00:08:35;;;;;;;;;;;;;;;25.41;42.50;97058.27;594235;238;68682;-65
2023/03/24 00:11:05;;;;;;;;;;;;;;;25.41;43.21;97060.17;594905;238;67994;-65
2023/03/24 00:13:41;;;;;;;;;;;;;;;25.39;41.84;97057.77;594750;238;63029;-64
2023/03/24 00:16:08;;;;;;;;;;;;;;;25.38;42.91;97052.70;594540;238;66257;-64
2023/03/24 00:18:36;;;;;;;;;;;;;;;25.37;44.01;97054.60;594451;238;68573;-65
2023/03/24 00:21:04;;;;;;;;;;;;;;;25.37;42.91;97059.98;594675;238;64973;-65
2023/03/24 00:23:32;;;;;;;;;;;;;;;25.36;42.02;97052.20;594620;238;68773;-65
2023/03/24 00:26:01;;;;;;;;;;;;;;;25.35;42.78;97048.71;594826;238;68239;-65
2023/03/24 00:28:32;;;;;;;;;;;;;;;25.34;42.14;97049.79;594866;238;65151;-66
2023/03/24 00:31:05;;;;;;;;;;;;;;;25.34;42.07;97040.92;594709;238;68725;-65
2023/03/24 00:33:31;;;;;;;;;;;;;;;25.34;42.61;97041.72;594550;238;68840;-66
2023/03/24 00:36:00;;;;;;;;;;;;;;;25.33;43.12;97036.66;594647;238;65246;-65
2023/03/24 00:38:28;;;;;;;;;;;;;;;25.30;43.52;97032.67;591699;238;68531;-65
2023/03/24 00:40:57;;;;;;;;;;;;;;;25.31;42.98;97030.77;591069;239;66311;-65
2023/03/24 00:43:25;;;;;;;;;;;;;;;25.29;44.09;97014.95;591142;239;65149;-65
2023/03/24 00:45:55;;;;;;;;;;;;;;;25.28;44.56;97018.71;590943;240;69186;-65
2023/03/24 00:48:23;;;;;;;;;;;;;;;25.27;43.30;97017.12;590467;240;69414;-65
2023/03/24 00:50:51;;;;;;;;;;;;;;;25.27;44.36;97017.12;591051;239;65785;-65
2023/03/24 00:53:22;;;;;;;;;;;;;;;25.27;43.24;97016.34;591003;239;68933;-65
2023/03/24 00:55:49;;;;;;;;;;;;;;;25.25;43.44;97020.10;591064;240;66244;-66
2023/03/24 00:58:18;;;;;;;;;;;;;;;25.26;43.23;97023.59;590983;239;65230;-65
2023/03/24 01:00:47;;;;;;;;;;;;;;;25.25;42.14;97020.10;591037;239;66382;-65
2023/03/24 01:03:15;;;;;;;;;;;;;;;25.23;43.22;97021.50;591036;240;68916;-65
2023/03/24 01:05:47;;;;;;;;;;;;;;;25.22;44.52;97012.64;590987;239;65057;-65
2023/03/24 01:08:13;;;;;;;;;;;;;;;25.21;43.09;97011.05;590983;239;66681;-65
2023/03/24 01:10:52;;;;;;;;;;;;;;;25.21;43.05;97010.27;591012;239;68507;-65
2023/03/24 01:13:10;;;;;;;;;;;;;;;25.19;45.08;97001.69;590429;239;65081;-65
2023/03/24 01:15:37;;;;;;;;;;;;;;;25.19;43.57;96996.31;591044;240;66635;-65
2023/03/24 01:18:08;;;;;;;;;;;;;;;25.18;43.60;96994.70;591037;239;69630;-65
2023/03/24 01:20:35;;;;;;;;;;;;;;;25.18;44.77;96997.38;591046;239;65097;-65
2023/03/24 01:23:06;;;;;;;;;;;;;;;25.17;43.44;96990.42;591055;239;68616;-65
2023/03/24 01:25:35;;;;;;;;;;;;;;;25.16;44.43;96988.84;591001;239;68769;-65
2023/03/24 01:28:03;;;;;;;;;;;;;;;25.15;45.24;96987.23;591089;239;63002;-65
2023/03/24 01:30:31;;;;;;;;;;;;;;;25.14;42.20;96989.09;590997;240;69320;-65
2023/03/24 01:32:58;;;;;;;;;;;;;;;25.15;43.72;96997.98;590987;240;69017;-65
2023/03/24 01:35:26;;;;;;;;;;;;;;;25.14;41.51;97001.75;589610;240;62919;-66
2023/03/24 01:37:54;;;;;;;;;;;;;;;25.13;41.51;96989.41;593061;238;68813;-65
2023/03/24 01:40:23;;;;;;;;;;;;;;;25.12;43.95;96993.97;594757;238;69189;-65
2023/03/24 01:42:51;;;;;;;;;;;;;;;25.13;42.69;96992.89;594716;238;65268;-65
2023/03/24 01:45:35;;;;;;;;;;;;;;;25.12;43.68;96998.55;594649;238;68768;-65
2023/03/24 01:48:03;;;;;;;;;;;;;;;25.11;42.83;96996.97;594432;238;68853;-66
2023/03/24 01:50:31;;;;;;;;;;;;;;;25.08;43.79;96995.67;594725;238;65064;-65
2023/03/24 01:53:00;;;;;;;;;;;;;;;25.07;44.00;96999.44;594466;238;66394;-65
2023/03/24 01:55:27;;;;;;;;;;;;;;;25.08;44.29;97000.26;591883;238;68706;-65
2023/03/24 01:57:56;;;;;;;;;;;;;;;25.06;43.10;97003.23;590540;240;62621;-65
2023/03/24 02:00:26;;;;;;;;;;;;;;;25.07;44.71;97004.02;590405;240;45497;-65
2023/03/24 02:03:11;;;;;;;;;;;;;;;25.05;44.47;97004.34;590124;240;46842;-65
2023/03/24 02:05:41;;;;;;;;;;;;;;;25.05;44.06;97006.23;593472;238;43354;-65
2023/03/24 02:08:16;;;;;;;;;;;;;;;25.03;45.16;97012.69;594658;238;66870;-65
2023/03/24 02:10:44;;;;;;;;;;;;;;;25.02;45.66;97011.11;594623;238;69110;-65
2023/03/24 02:13:12;;;;;;;;;;;;;;;25.01;44.93;97009.49;594593;238;65851;-65
2023/03/24 02:15:41;;;;;;;;;;;;;;;25.01;44.16;97008.70;594902;238;68850;-65
2023/03/24 02:18:17;;;;;;;;;;;;;;;25.00;43.94;97002.53;594734;238;69323;-65
2023/03/24 02:20:50;;;;;;;;;;;;;;;24.98;43.53;97004.72;594375;238;65201;-66
2023/03/24 02:23:22;;;;;;;;;;;;;;;24.98;43.95;97010.09;594752;238;69011;-66
2023/03/24 02:26:00;;;;;;;;;;;;;;;24.98;43.70;97012.78;589335;238;69914;-66
2023/03/24 02:28:30;;;;;;;;;;;;;;;24.97;43.83;97019.26;594501;238;62949;-65
2023/03/24 02:31:15;;;;;;;;;;;;;;;24.96;44.29;97023.05;594881;238;68807;-66
2023/03/24 02:33:47;;;;;;;;;;;;;;;24.96;42.30;97022.23;594594;238;68899;-65
2023/03/24 02:36:20;;;;;;;;;;;;;;;24.95;42.27;97028.72;594478;238;62646;-66
2023/03/24 02:38:56;;;;;;;;;;;;;;;24.94;44.50;97032.51;591133;238;66710;-66
2023/03/24 02:41:25;;;;;;;;;;;;;;;24.94;46.18;97035.98;591074;239;68462;-65
2023/03/24 02:43:54;;;;;;;;;;;;;;;24.92;42.64;97027.41;583496;239;65992;-64
2023/03/24 02:46:26;;;;;;;;;;;;;;;24.93;45.14;97029.00;590794;239;66176;-66
2023/03/24 02:49:01;;;;;;;;;;;;;;;24.91;44.34;97025.01;590995;239;69072;-65
2023/03/24 02:51:30;;;;;;;;;;;;;;;24.90;44.04;97028.80;590866;240;65050;-65
2023/03/24 02:54:00;;;;;;;;;;;;;;;24.89;42.79;97027.22;590991;239;69610;-64
2023/03/24 02:56:33;;;;;;;;;;;;;;;24.88;43.61;97020.23;590440;240;69839;-64
2023/03/24 02:59:06;;;;;;;;;;;;;;;24.86;42.86;97007.10;590978;239;41474;-64
2023/03/24 03:01:42;;;;;;;;;;;;;;;24.86;43.40;96996.34;591334;239;67432;-64
2023/03/24 03:04:25;;;;;;;;;;;;;;;24.86;42.97;96985.59;590863;239;47044;-64
2023/03/24 03:06:54;;;;;;;;;;;;;;;24.85;42.40;96983.98;590990;239;64935;-64
2023/03/24 03:09:23;;;;;;;;;;;;;;;24.84;44.06;96979.72;591086;239;68717;-64
2023/03/24 03:11:52;;;;;;;;;;;;;;;24.83;42.68;96980.81;591036;240;68719;-64
2023/03/24 03:14:24;;;;;;;;;;;;;;;24.82;43.59;96976.52;591123;240;63686;-64
2023/03/24 03:16:53;;;;;;;;;;;;;;;24.82;43.64;96989.95;589917;239;69860;-64
2023/03/24 03:19:22;;;;;;;;;;;;;;;24.81;44.04;96988.38;591179;239;68774;-64
2023/03/24 03:21:50;;;;;;;;;;;;;;;24.80;44.75;96984.89;591188;239;63042;-64
2023/03/24 03:24:25;;;;;;;;;;;;;;;24.80;44.56;96981.41;591053;240;68905;-64
2023/03/24 03:26:49;;;;;;;;;;;;;;;24.79;42.23;96985.17;590906;239;68770;-64
2023/03/24 03:29:20;;;;;;;;;;;;;;;24.79;43.25;96985.97;590995;239;65360;-64
2023/03/24 03:31:51;;;;;;;;;;;;;;;24.78;43.86;96986.28;591187;239;66746;-65
2023/03/24 03:34:23;;;;;;;;;;;;;;;24.76;41.36;96983.88;591049;239;66496;-65
2023/03/24 03:36:52;;;;;;;;;;;;;;;24.76;44.06;96980.40;591541;238;63763;-65
2023/03/24 03:39:30;;;;;;;;;;;;;;;24.75;44.12;96973.44;594536;238;69059;-65
2023/03/24 03:41:59;;;;;;;;;;;;;;;24.74;42.00;96966.45;594479;238;66172;-65
2023/03/24 03:44:27;;;;;;;;;;;;;;;24.74;46.64;96969.93;592666;238;65959;-65
2023/03/24 03:46:55;;;;;;;;;;;;;;;24.73;43.41;96975.62;594681;238;68872;-65
2023/03/24 03:49:27;;;;;;;;;;;;;;;24.72;43.90;96980.20;594547;238;50021;-65
2023/03/24 03:51:56;;;;;;;;;;;;;;;24.71;42.43;96978.59;594672;238;63142;-65
2023/03/24 03:54:25;;;;;;;;;;;;;;;24.72;42.57;96979.41;594709;238;69109;-65
2023/03/24 03:56:52;;;;;;;;;;;;;;;24.71;42.99;96975.90;594834;238;66324;-65
2023/03/24 03:59:32;;;;;;;;;;;;;;;24.70;44.32;96974.32;594176;238;44215;-65
2023/03/24 04:02:05;;;;;;;;;;;;;;;24.70;41.80;96971.62;594416;238;69601;-64
2023/03/24 04:04:45;;;;;;;;;;;;;;;24.69;42.30;96974.60;591811;238;46348;-64
2023/03/24 04:07:27;;;;;;;;;;;;;;;24.69;42.86;96980.80;594362;238;42500;-64
2023/03/24 04:10:06;;;;;;;;;;;;;;;24.69;42.68;96982.66;594230;238;47215;-64
2023/03/24 04:12:52;;;;;;;;;;;;;;;24.67;42.31;96979.50;594496;238;68596;-64
2023/03/24 04:15:41;;;;;;;;;;;;;;;24.66;42.24;96991.31;593992;238;43153;-64
2023/03/24 04:18:11;;;;;;;;;;;;;;;24.64;42.75;96986.26;591042;238;49281;-64
2023/03/24 04:20:54;;;;;;;;;;;;;;;24.64;42.88;96988.94;594293;236;52020;-64
2023/03/24 04:23:39;;;;;;;;;;;;;;;24.64;43.58;96996.21;594608;238;63013;-64
2023/03/24 04:26:17;;;;;;;;;;;;;;;24.63;43.23;96994.59;582249;243;68347;-64
2023/03/24 04:28:51;;;;;;;;;;;;;;;24.61;43.39;96989.53;591838;238;47851;-64
2023/03/24 04:31:24;;;;;;;;;;;;;;;24.60;42.30;96990.61;594561;238;65937;-64
2023/03/24 04:33:57;;;;;;;;;;;;;;;24.59;42.49;96997.87;593399;238;69301;-64
2023/03/24 04:36:27;;;;;;;;;;;;;;;24.59;41.89;96997.09;594614;238;68651;-64
2023/03/24 04:38:58;;;;;;;;;;;;;;;24.58;43.57;96996.30;593719;237;47062;-64
2023/03/24 04:41:29;;;;;;;;;;;;;;;24.57;43.19;96994.68;592052;238;45276;-64
2023/03/24 04:43:58;;;;;;;;;;;;;;;24.57;43.42;97000.05;590848;239;45405;-64
2023/03/24 04:46:26;;;;;;;;;;;;;;;24.56;41.54;97001.16;591051;240;63064;-64
2023/03/24 04:48:55;;;;;;;;;;;;;;;24.56;42.99;97000.36;592418;238;47732;-64
2023/03/24 04:51:31;;;;;;;;;;;;;;;24.57;42.98;96999.27;594832;238;45580;-64
2023/03/24 04:54:03;;;;;;;;;;;;;;;24.55;41.86;97004.95;594685;238;46028;-64
2023/03/24 04:56:42;;;;;;;;;;;;;;;24.55;43.84;97007.63;594565;238;68730;-64
2023/03/24 04:59:12;;;;;;;;;;;;;;;24.53;42.68;97006.33;594765;238;45127;-65
2023/03/24 05:01:40;;;;;;;;;;;;;;;24.53;41.75;97012.50;594737;238;65252;-65
2023/03/24 05:04:17;;;;;;;;;;;;;;;24.52;43.53;97004.72;594518;238;47540;-63
2023/03/24 05:06:50;;;;;;;;;;;;;;;24.51;41.90;97005.81;594529;238;68850;-65
2023/03/24 05:09:21;;;;;;;;;;;;;;;24.51;41.54;97016.56;594717;238;42412;-66
2023/03/24 05:11:49;;;;;;;;;;;;;;;24.50;43.82;97015.77;594601;238;68842;-63
2023/03/24 05:14:18;;;;;;;;;;;;;;;24.50;42.46;97014.95;594483;238;68525;-65
2023/03/24 05:16:46;;;;;;;;;;;;;;;24.49;43.17;97021.42;594780;238;65034;-65
2023/03/24 05:19:14;;;;;;;;;;;;;;;24.47;42.71;97019.05;594629;238;69317;-65
2023/03/24 05:21:43;;;;;;;;;;;;;;;24.48;42.57;97017.16;594598;238;68894;-65
2023/03/24 05:24:11;;;;;;;;;;;;;;;24.46;43.02;97020.13;594649;238;66353;-64
2023/03/24 05:26:39;;;;;;;;;;;;;;;24.46;43.58;97011.27;594785;238;68952;-64
2023/03/24 05:29:09;;;;;;;;;;;;;;;24.46;42.74;97024.70;594631;237;49868;-65
2023/03/24 05:31:39;;;;;;;;;;;;;;;24.46;42.43;97020.13;594811;238;63027;-65
2023/03/24 05:34:09;;;;;;;;;;;;;;;24.45;42.28;97023.12;594683;238;51156;-66
2023/03/24 05:36:51;;;;;;;;;;;;;;;24.45;43.42;97023.12;593878;238;49640;-66
2023/03/24 05:39:20;;;;;;;;;;;;;;;24.45;43.07;97023.12;590478;240;44179;-66
2023/03/24 05:41:49;;;;;;;;;;;;;;;24.44;45.30;97016.92;589781;240;48485;-66
2023/03/24 05:44:17;;;;;;;;;;;;;;;24.44;44.62;97024.19;590964;239;68408;-66
2023/03/24 05:46:46;;;;;;;;;;;;;;;24.44;42.98;97016.92;590768;240;44230;-66
2023/03/24 05:49:14;;;;;;;;;;;;;;;24.45;43.82;97020.44;591067;239;67896;-66
2023/03/24 05:51:41;;;;;;;;;;;;;;;24.45;43.15;97026.59;591097;239;68717;-66
2023/03/24 05:54:09;;;;;;;;;;;;;;;24.44;42.33;97024.98;591117;240;65077;-66
2023/03/24 05:56:41;;;;;;;;;;;;;;;24.47;42.03;97020.91;590970;240;47529;-66
2023/03/24 05:59:22;;;;;;;;;;;;;;;24.47;44.03;97026.28;590697;239;47252;-65
2023/03/24 06:01:59;;;;;;;;;;;;;;;24.47;43.22;97023.60;591132;239;46353;-65
2023/03/24 06:04:31;;;;;;;;;;;;;;;24.47;41.26;97029.80;590876;239;47595;-66
2023/03/24 06:06:58;;;;;;;;;;;;;;;24.48;43.08;97028.70;590930;239;47969;-66
2023/03/24 06:09:41;;;;;;;;;;;;;;;24.48;42.25;97026.00;591022;240;43899;-66
2023/03/24 06:12:06;;;;;;;;;;;;;;;24.50;42.24;97031.89;590898;239;68941;-66
2023/03/24 06:14:35;;;;;;;;;;;;;;;24.51;42.12;97030.79;591016;239;66593;-65
2023/03/24 06:17:07;;;;;;;;;;;;;;;24.52;41.68;97032.38;590789;239;43503;-65
2023/03/24 06:19:37;;;;;;;;;;;;;;;24.53;42.29;97025.14;591042;239;68255;-65
2023/03/24 06:22:12;;;;;;;;;;;;;;;24.56;41.15;97029.92;590791;239;47255;-66
2023/03/24 06:24:40;;;;;;;;;;;;;;;24.57;43.63;97031.50;591149;239;65731;-66
2023/03/24 06:27:09;;;;;;;;;;;;;;;24.59;39.56;97034.70;586439;240;69683;-66
2023/03/24 06:29:38;;;;;;;;;;;;;;;24.60;41.83;97033.60;591186;239;68340;-66
2023/03/24 06:32:05;;;;;;;;;;;;;;;24.61;41.23;97035.21;590956;239;63217;-67
2023/03/24 06:34:37;;;;;;;;;;;;;;;24.63;43.22;97033.01;590921;240;46946;-66
2023/03/24 06:37:16;;;;;;;;;;;;;;;24.64;43.72;97033.83;591653;238;51280;-65
2023/03/24 06:39:43;;;;;;;;;;;;;;;24.64;42.92;97037.31;594883;238;65071;-65
2023/03/24 06:42:12;;;;;;;;;;;;;;;24.67;44.65;97030.55;594636;238;68698;-67
2023/03/24 06:44:39;;;;;;;;;;;;;;;24.67;44.54;97041.30;594777;238;68684;-66
2023/03/24 06:47:07;;;;;;;;;;;;;;;24.69;45.51;97036.41;594728;238;64404;-67
2023/03/24 06:49:36;;;;;;;;;;;;;;;24.68;39.00;97040.98;594727;238;68871;-66
2023/03/24 06:52:04;;;;;;;;;;;;;;;24.73;43.00;97034.74;594906;238;68471;-66
2023/03/24 06:54:33;;;;;;;;;;;;;;;24.73;45.16;97040.91;594833;238;42365;-66
2023/03/24 06:57:01;;;;;;;;;;;;;;;24.75;42.64;97037.94;594415;238;68944;-67
2023/03/24 06:59:30;;;;;;;;;;;;;;;24.79;37.07;97033.55;594181;238;46469;-65
2023/03/24 07:01:57;;;;;;;;;;;;;;;24.86;42.04;97039.36;594055;238;62691;-64
2023/03/24 07:04:27;;;;;;;;;;;;;;;24.92;42.13;97037.38;594634;238;69007;-66
2023/03/24 07:06:57;;;;;;;;;;;;;;;24.94;44.44;97035.98;594707;238;47272;-67
2023/03/24 07:09:25;;;;;;;;;;;;;;;24.97;40.47;97035.39;593621;238;62686;-66
2023/03/24 07:11:53;;;;;;;;;;;;;;;25.00;43.87;97040.17;591342;240;66708;-66
2023/03/24 07:14:24;;;;;;;;;;;;;;;25.05;45.06;97031.23;591436;240;68706;-66
2023/03/24 07:16:50;;;;;;;;;;;;;;;25.07;42.09;97030.91;591377;240;65068;-66
2023/03/24 07:19:28;;;;;;;;;;;;;;;25.10;42.89;97024.94;591405;240;48737;-66
2023/03/24 07:21:58;;;;;;;;;;;;;;;25.12;43.79;97028.13;580062;238;49782;-66
2023/03/24 07:24:27;;;;;;;;;;;;;;;25.15;41.95;97016.81;591226;239;42482;-66
2023/03/24 07:26:56;;;;;;;;;;;;;;;25.17;43.19;97017.31;594328;238;49554;-66
2023/03/24 07:29:24;;;;;;;;;;;;;;;25.18;42.34;97008.96;594457;238;69127;-66
2023/03/24 07:32:06;;;;;;;;;;;;;;;25.22;43.64;97019.91;594139;238;45029;-66
2023/03/24 07:34:35;;;;;;;;;;;;;;;25.25;43.80;97019.31;594345;238;68812;-65
2023/03/24 07:37:03;;;;;;;;;;;;;;;25.27;43.79;97014.44;592723;238;68784;-66
2023/03/24 07:39:31;;;;;;;;;;;;;;;25.29;44.22;97020.33;586397;242;62501;-66
2023/03/24 07:41:59;;;;;;;;;;;;;;;25.31;43.22;97010.04;586413;242;68834;-66
2023/03/24 07:44:34;;;;;;;;;;;;;;;25.33;44.52;97012.45;586165;241;50056;-66
2023/03/24 07:47:01;;;;;;;;;;;;;;;25.34;44.86;97009.44;586617;240;62770;-65
2023/03/24 07:49:29;;;;;;;;;;;;;;;25.30;44.05;97005.77;586319;242;67437;-65
2023/03/24 07:52:05;;;;;;;;;;;;;;;25.25;44.09;97001.28;585990;242;47543;-65
2023/03/24 07:54:43;;;;;;;;;;;;;;;25.25;43.15;97006.66;586221;242;43925;-66
2023/03/24 07:57:13;;;;;;;;;;;;;;;25.23;44.10;96994.60;586062;240;46354;-62
2023/03/24 07:59:40;;;;;;;;;;;;;;;25.21;41.96;96994.92;586212;240;66267;-63
2023/03/24 08:02:11;;;;;;;;;;;;;;;25.22;43.83;96999.19;585788;242;43345;-64
2023/03/24 08:04:43;;;;;;;;;;;;;;;25.22;43.33;96996.50;585620;242;47452;-63
2023/03/24 08:07:12;;;;;;;;;;;;;;;25.22;44.22;96993.02;585480;242;45900;-62
2023/03/24 08:09:40;;;;;;;;;;;;;;;25.22;44.22;96993.02;585974;240;62936;-65
2023/03/24 08:12:08;;;;;;;;;;;;;;;25.22;44.28;96993.81;585802;242;66338;-65
2023/03/24 08:14:35;;;;;;;;;;;;;;;25.22;43.55;96996.50;586226;240;66507;-64
2023/03/24 08:17:03;;;;;;;;;;;;;;;25.23;43.92;96990.02;585817;242;63926;-66
2023/03/24 08:19:31;;;;;;;;;;;;;;;25.23;43.80;96983.84;586078;240;66973;-64
2023/03/24 08:21:58;;;;;;;;;;;;;;;25.23;43.50;96979.25;586130;240;68311;-67
2023/03/24 08:24:26;;;;;;;;;;;;;;;25.24;42.91;96980.87;586101;240;63084;-65
2023/03/24 08:26:57;;;;;;;;;;;;;;;25.25;43.45;96974.38;584065;240;70321;-66
2023/03/24 08:29:22;;;;;;;;;;;;;;;25.25;44.55;96968.21;581710;241;68472;-65
2023/03/24 08:31:50;;;;;;;;;;;;;;;25.25;44.34;96968.21;581673;243;64874;-65
2023/03/24 08:34:18;;;;;;;;;;;;;;;25.26;44.56;96950.97;583725;240;68485;-66
2023/03/24 08:36:45;;;;;;;;;;;;;;;25.24;43.65;96959.34;584155;241;66388;-65
2023/03/24 08:39:13;;;;;;;;;;;;;;;25.26;41.03;96961.72;579947;244;63849;-65
2023/03/24 08:41:40;;;;;;;;;;;;;;;25.28;40.42;96953.37;583069;242;68503;-64
2023/03/24 08:44:09;;;;;;;;;;;;;;;25.28;44.46;96951.47;583842;242;68410;-65
2023/03/24 08:46:36;;;;;;;;;;;;;;;25.27;44.13;96941.82;584146;242;62941;-64
2023/03/24 08:49:04;;;;;;;;;;;;;;;25.27;43.33;96944.51;584456;241;66306;-65
2023/03/24 08:51:32;;;;;;;;;;;;;;;25.27;43.38;96936.44;584115;242;66222;-64
2023/03/24 08:54:00;;;;;;;;;;;;;;;25.29;42.36;96936.94;584362;242;63106;-65
2023/03/24 08:56:27;;;;;;;;;;;;;;;25.31;41.43;96942.00;584250;242;68707;-64
2023/03/24 08:58:59;;;;;;;;;;;;;;;25.31;43.44;96940.11;584215;242;49404;-65
2023/03/24 09:01:27;;;;;;;;;;;;;;;25.34;42.62;96939.50;579972;242;64903;-64
2023/03/24 09:03:56;;;;;;;;;;;;;;;25.35;41.72;96932.25;583976;242;70446;-64
2023/03/24 09:06:23;;;;;;;;;;;;;;;25.36;40.27;96940.00;584178;242;69027;-64
2023/03/24 09:08:51;;;;;;;;;;;;;;;25.38;41.90;96934.34;584400;242;62689;-64
2023/03/24 09:11:20;;;;;;;;;;;;;;;25.38;42.28;96927.05;584191;242;68698;-63
2023/03/24 09:13:48;;;;;;;;;;;;;;;25.40;45.05;96924.87;584308;242;68766;-65
2023/03/24 09:16:16;;;;;;;;;;;;;;;25.39;41.74;96928.64;583937;242;62924;-63
2023/03/24 09:18:44;;;;;;;;;;;;;;;25.40;44.74;96924.05;584495;242;68671;-65
2023/03/24 09:21:13;;;;;;;;;;;;;;;25.40;42.00;96924.87;584466;242;68811;-65
2023/03/24 09:23:40;;;;;;;;;;;;;;;25.42;41.09;96919.17;584122;242;62511;-62
2023/03/24 09:26:08;;;;;;;;;;;;;;;25.43;42.70;96918.88;584529;242;68658;-63
2023/03/24 09:28:35;;;;;;;;;;;;;;;25.43;43.01;96921.57;584516;242;68922;-65
2023/03/24 09:31:04;;;;;;;;;;;;;;;25.44;42.91;96908.91;584415;242;65089;-65
2023/03/24 09:33:33;;;;;;;;;;;;;;;25.44;43.83;96909.70;584351;242;68874;-64
2023/03/24 09:36:01;;;;;;;;;;;;;;;25.44;43.83;96904.31;584127;242;66977;-65
2023/03/24 09:38:29;;;;;;;;;;;;;;;25.44;43.84;96908.91;591186;239;63053;-63
2023/03/24 09:41:01;;;;;;;;;;;;;;;25.44;42.24;96904.31;593376;239;68947;-66
2023/03/24 09:43:32;;;;;;;;;;;;;;;25.45;42.85;96905.11;593305;239;68746;-63
2023/03/24 09:46:01;;;;;;;;;;;;;;;25.44;43.17;96898.94;593589;239;65033;-63
2023/03/24 09:48:33;;;;;;;;;;;;;;;25.45;44.82;96886.28;593287;239;66552;-64
2023/03/24 09:51:02;;;;;;;;;;;;;;;25.44;43.88;96896.25;593198;239;68830;-64
2023/03/24 09:53:35;;;;;;;;;;;;;;;25.46;44.20;96891.37;588724;239;65372;-64
2023/03/24 09:56:10;;;;;;;;;;;;;;;25.45;43.83;96888.97;582116;239;68964;-64
2023/03/24 09:58:40;;;;;;;;;;;;;;;25.45;43.47;96883.59;590718;240;68505;-64
2023/03/24 10:01:12;;;;;;;;;;;;;;;25.46;44.02;96888.68;591502;239;64990;-64
2023/03/24 10:03:39;;;;;;;;;;;;;;;25.46;43.46;96885.20;593617;239;68713;-64
2023/03/24 10:06:12;;;;;;;;;;;;;;;25.47;41.68;96878.70;593331;239;66599;-62
2023/03/24 10:08:44;;;;;;;;;;;;;;;25.46;42.83;96880.61;593405;239;69705;-63
2023/03/24 10:11:29;;;;;;;;;;;;;;;25.46;43.86;96874.44;593614;239;68874;-64
2023/03/24 10:14:20;;;;;;;;;;;;;;;25.45;43.94;96872.83;592997;239;68453;-64
2023/03/24 10:16:51;;;;;;;;;;;;;;;25.44;43.43;96879.31;589772;239;65392;-64
2023/03/24 10:19:37;;;;;;;;;;;;;;;25.42;43.49;96873.44;592880;239;68717;-64
2023/03/24 10:22:12;;;;;;;;;;;;;;;25.41;43.46;96872.64;593300;239;69067;-63
2023/03/24 10:24:44;;;;;;;;;;;;;;;25.41;43.31;96869.95;593109;239;63074;-60
2023/03/24 10:27:13;;;;;;;;;;;;;;;25.40;40.52;96865.69;592651;238;66530;-62
2023/03/24 10:29:41;;;;;;;;;;;;;;;25.41;42.96;96864.58;592973;238;68771;-63
2023/03/24 10:32:14;;;;;;;;;;;;;;;25.38;41.89;96865.19;593138;239;65101;-64
2023/03/24 10:34:43;;;;;;;;;;;;;;;25.41;39.91;96866.48;592665;239;66410;-65
2023/03/24 10:37:11;;;;;;;;;;;;;;;25.43;39.35;96866.98;592826;239;70467;-64
2023/03/24 10:39:39;;;;;;;;;;;;;;;25.44;40.74;96860.48;592928;239;64961;-64
2023/03/24 10:42:08;;;;;;;;;;;;;;;25.44;41.04;96857.80;593445;239;68455;-64
2023/03/24 10:44:35;;;;;;;;;;;;;;;25.45;41.24;96862.88;593304;239;66631;-64
2023/03/24 10:47:07;;;;;;;;;;;;;;;25.44;40.83;96861.27;593602;239;62734;-64
2023/03/24 10:49:33;;;;;;;;;;;;;;;25.40;41.74;96846.86;593606;239;69170;-64
2023/03/24 10:52:02;;;;;;;;;;;;;;;25.38;41.35;96856.33;593390;239;68582;-64
2023/03/24 10:54:31;;;;;;;;;;;;;;;25.36;42.79;96842.38;593665;239;62749;-64
2023/03/24 10:57:02;;;;;;;;;;;;;;;25.34;42.25;96845.36;593657;239;66370;-65
2023/03/24 10:59:48;;;;;;;;;;;;;;;25.33;41.70;96854.53;593412;239;68582;-64
2023/03/24 11:02:20;;;;;;;;;;;;;;;25.31;41.69;96840.59;593352;239;65094;-64
2023/03/24 11:05:04;;;;;;;;;;;;;;;25.31;40.25;96837.89;593402;239;68821;-65
2023/03/24 11:07:39;;;;;;;;;;;;;;;25.30;43.07;96828.24;586647;241;66655;-63
2023/03/24 11:10:17;;;;;;;;;;;;;;;25.30;41.54;96830.94;591271;239;64988;-64
2023/03/24 11:12:56;;;;;;;;;;;;;;;25.29;42.48;96823.97;593353;239;65129;-65
2023/03/24 11:15:30;;;;;;;;;;;;;;;25.29;42.20;96825.84;593642;239;68764;-64
2023/03/24 11:18:02;;;;;;;;;;;;;;;25.28;42.19;96814.30;593654;239;65333;-64
2023/03/24 11:20:35;;;;;;;;;;;;;;;25.27;40.63;96814.62;591217;239;68782;-65
2023/03/24 11:23:04;;;;;;;;;;;;;;;25.27;42.00;96806.55;593389;239;68741;-65
2023/03/24 11:25:33;;;;;;;;;;;;;;;25.26;42.09;96803.04;592975;239;65332;-64
2023/03/24 11:28:02;;;;;;;;;;;;;;;25.26;42.29;96797.66;593229;239;66710;-65
2023/03/24 11:30:31;;;;;;;;;;;;;;;25.25;42.61;96793.39;593419;239;66474;-65
2023/03/24 11:33:02;;;;;;;;;;;;;;;25.26;42.93;96800.34;593105;239;47208;-65
2023/03/24 11:35:31;;;;;;;;;;;;;;;25.26;43.63;96797.66;593262;239;68793;-65
2023/03/24 11:38:00;;;;;;;;;;;;;;;25.23;41.45;96790.20;581970;240;72543;-65
2023/03/24 11:40:29;;;;;;;;;;;;;;;25.24;41.09;96783.75;586134;240;68277;-64
2023/03/24 11:43:02;;;;;;;;;;;;;;;25.23;43.07;96776.75;587040;240;70061;-64
2023/03/24 11:45:37;;;;;;;;;;;;;;;25.23;42.00;96785.61;587446;240;68693;-63
2023/03/24 11:48:07;;;;;;;;;;;;;;;25.23;43.21;96779.45;588592;240;64901;-64
2023/03/24 11:50:36;;;;;;;;;;;;;;;25.22;43.92;96777.87;587123;240;68875;-65
2023/03/24 11:53:14;;;;;;;;;;;;;;;25.22;41.87;96783.25;587858;240;67225;-64
2023/03/24 11:55:46;;;;;;;;;;;;;;;25.21;42.90;96778.98;587689;240;65153;-65
2023/03/24 11:58:24;;;;;;;;;;;;;;;25.19;42.24;96770.41;587721;240;67143;-65
2023/03/24 12:01:03;;;;;;;;;;;;;;;25.20;42.40;96774.68;588016;239;68762;-63
2023/03/24 12:03:32;;;;;;;;;;;;;;;25.19;42.02;96765.03;588062;240;65084;-63
2023/03/24 12:06:01;;;;;;;;;;;;;;;25.19;41.62;96773.89;588112;240;69287;-63
2023/03/24 12:08:32;;;;;;;;;;;;;;;25.20;42.38;96758.55;588461;240;68752;-64
2023/03/24 12:11:04;;;;;;;;;;;;;;;25.19;43.25;96763.13;587653;240;62704;-63
2023/03/24 12:13:33;;;;;;;;;;;;;;;25.19;43.29;96756.97;587357;240;68931;-63
2023/03/24 12:16:18;;;;;;;;;;;;;;;25.19;41.53;96754.27;587325;241;66440;-63
2023/03/24 12:19:04;;;;;;;;;;;;;;;25.18;43.56;96749.98;587434;241;64944;-64
2023/03/24 12:21:49;;;;;;;;;;;;;;;25.19;43.42;96740.83;587414;241;66619;-63
2023/03/24 12:24:34;;;;;;;;;;;;;;;25.17;42.81;96738.43;587302;240;68711;-63
2023/03/24 12:27:02;;;;;;;;;;;;;;;25.17;42.80;96737.64;587495;240;65332;-66
2023/03/24 12:29:34;;;;;;;;;;;;;;;25.16;43.43;96734.16;588160;240;66736;-63
2023/03/24 12:32:11;;;;;;;;;;;;;;;25.16;43.16;96733.38;588355;240;66525;-63
2023/03/24 12:34:49;;;;;;;;;;;;;;;25.16;42.85;96730.69;588737;240;65273;-63
2023/03/24 12:37:21;;;;;;;;;;;;;;;25.15;44.26;96726.39;589633;239;68944;-63
2023/03/24 12:40:00;;;;;;;;;;;;;;;25.14;42.85;96725.57;591974;239;66611;-63
2023/03/24 12:42:29;;;;;;;;;;;;;;;25.14;43.06;96732.84;591959;239;62723;-63
2023/03/24 12:44:58;;;;;;;;;;;;;;;25.14;43.13;96727.47;592416;239;66446;-63
2023/03/24 12:47:42;;;;;;;;;;;;;;;25.13;41.61;96725.89;592374;239;66037;-63
2023/03/24 12:50:27;;;;;;;;;;;;;;;25.13;42.47;96725.89;592358;239;63099;-63
2023/03/24 12:53:05;;;;;;;;;;;;;;;25.13;41.41;96725.89;592467;239;68508;-63
2023/03/24 12:55:39;;;;;;;;;;;;;;;25.12;43.57;96725.08;592389;239;66616;-63
2023/03/24 12:58:14;;;;;;;;;;;;;;;25.10;42.79;96724.61;592468;239;62902;-65
2023/03/24 13:00:43;;;;;;;;;;;;;;;25.11;42.88;96711.95;592267;239;68537;-62
2023/03/24 13:03:12;;;;;;;;;;;;;;;25.10;41.60;96711.16;592333;239;68437;-62
2023/03/24 13:05:41;;;;;;;;;;;;;;;25.10;43.71;96715.72;592407;239;64900;-63
2023/03/24 13:08:15;;;;;;;;;;;;;;;25.10;44.35;96710.34;592441;239;66581;-66